Time;durP1;ratioP1;P1;durP2;ratioP2;P2;SDS_P1;SDS_P2;PMS_P1;PMS_P2;Temp;Humidity;BMP_temperature;BMP_pressure;BME280_temperature;BME280_humidity;BME280_pressure;Samples;Min_cycle;Max_cycle;Signal;HPM_P1;HPM_P2
2023/10/05 00:03:47;;;;;;;;;;;13.50;99.90;;;;;;5090122;28;20075;-85
2023/10/05 00:06:17;;;;;;;8.57;2.05;;;13.60;99.90;;;;;;5086756;27;20477;-84
2023/10/05 00:08:49;;;;;;;5.95;2.58;;;13.10;99.90;;;;;;5091773;27;20477;-85
2023/10/05 00:11:31;;;;;;;7.60;2.10;;;13.10;99.90;;;;;;5097106;27;20050;-85
2023/10/05 00:14:06;;;;;;;6.45;2.00;;;13.10;99.90;;;;;;5108863;27;20407;-85
2023/10/05 00:16:37;;;;;;;6.13;2.30;;;13.10;99.90;;;;;;5071863;28;20094;-84
2023/10/05 00:19:11;;;;;;;7.07;2.23;;;13.70;99.90;;;;;;5098230;27;20484;-84
2023/10/05 00:21:40;;;;;;;4.93;1.98;;;13.20;99.90;;;;;;5095939;28;20682;-85
2023/10/05 00:24:08;;;;;;;5.20;1.77;;;13.20;99.90;;;;;;5085152;27;20050;-84
2023/10/05 00:26:35;;;;;;;7.22;2.33;;;13.20;99.90;;;;;;5101391;28;20417;-85
2023/10/05 00:31:38;;;;;;;8.90;2.50;;;13.20;99.90;;;;;;5089452;28;20051;-84
2023/10/05 00:34:08;;;;;;;7.27;2.10;;;13.60;99.90;;;;;;5074938;28;20035;-84
2023/10/05 00:36:35;;;;;;;7.80;2.33;;;13.20;99.90;;;;;;5072973;28;20067;-84
2023/10/05 00:39:02;;;;;;;8.48;2.33;;;13.20;99.90;;;;;;5089649;28;20134;-84
2023/10/05 00:41:30;;;;;;;7.72;2.10;;;13.50;99.90;;;;;;5092432;28;20518;-84
2023/10/05 00:43:56;;;;;;;8.23;2.20;;;13.20;99.90;;;;;;5097144;28;20473;-85
2023/10/05 00:46:22;;;;;;;5.60;1.92;;;13.50;99.90;;;;;;5073687;28;20046;-84
2023/10/05 00:49:12;;;;;;;6.55;2.25;;;13.20;99.90;;;;;;5104137;28;20051;-84
2023/10/05 00:51:39;;;;;;;7.90;2.20;;;13.30;99.90;;;;;;5093737;28;20104;-84
2023/10/05 00:54:11;;;;;;;8.15;2.60;;;13.50;99.90;;;;;;5104227;28;20043;-84
2023/10/05 00:56:40;;;;;;;8.80;2.50;;;13.20;99.90;;;;;;5076498;28;20102;-84
2023/10/05 00:59:06;;;;;;;7.70;2.22;;;13.20;99.90;;;;;;5079277;28;20511;-84
2023/10/05 01:01:49;;;;;;;6.10;1.90;;;13.20;99.90;;;;;;5088989;28;20040;-84
2023/10/05 01:04:28;;;;;;;6.70;2.08;;;13.10;99.90;;;;;;5096531;28;20047;-84
2023/10/05 01:14:51;;;;;;;6.85;2.15;;;13.20;99.90;;;;;;5120504;28;20046;-84
2023/10/05 01:17:21;;;;;;;6.85;2.80;;;13.30;99.90;;;;;;5106366;28;20035;-85
2023/10/05 01:19:56;;;;;;;10.45;2.95;;;13.20;99.90;;;;;;5107108;28;20494;-84
2023/10/05 01:22:23;;;;;;;7.03;2.33;;;13.20;99.90;;;;;;5106243;28;20084;-84
2023/10/05 01:24:50;;;;;;;5.78;2.08;;;13.20;99.90;;;;;;5109163;28;20040;-85
2023/10/05 01:27:19;;;;;;;4.05;1.63;;;14.10;99.90;;;;;;5103617;28;20087;-84
2023/10/05 01:29:44;;;;;;;7.22;2.00;;;13.30;99.90;;;;;;5094091;28;20047;-85
2023/10/05 01:32:10;;;;;;;8.13;2.35;;;13.30;99.90;;;;;;5108705;28;20795;-84
2023/10/05 01:34:37;;;;;;;6.47;1.80;;;13.60;99.90;;;;;;5092740;27;20055;-84
2023/10/05 01:37:03;;;;;;;4.85;2.08;;;13.30;99.90;;;;;;5111701;27;20168;-84
2023/10/05 01:39:34;;;;;;;6.18;1.80;;;13.30;99.90;;;;;;5093118;28;20733;-84
2023/10/05 01:42:04;;;;;;;7.90;1.95;;;13.30;99.90;;;;;;5092373;28;20052;-84
2023/10/05 01:44:30;;;;;;;5.95;2.25;;;13.30;99.90;;;;;;5083544;28;20055;-84
2023/10/05 01:46:58;;;;;;;7.05;2.20;;;13.30;99.90;;;;;;5093847;27;20402;-84
2023/10/05 01:49:25;;;;;;;7.18;1.85;;;13.30;99.90;;;;;;5087800;28;20122;-85
2023/10/05 01:51:52;;;;;;;5.65;1.95;;;13.30;99.90;;;;;;5093668;27;20099;-84
2023/10/05 01:54:18;;;;;;;7.82;2.00;;;13.30;99.90;;;;;;5091614;27;20035;-86
2023/10/05 01:56:47;;;;;;;6.85;2.13;;;14.00;99.90;;;;;;5098623;28;20065;-84
2023/10/05 01:59:13;;;;;;;10.73;2.85;;;13.40;99.90;;;;;;5103749;27;20496;-84
2023/10/05 02:01:40;;;;;;;7.88;2.10;;;13.40;99.90;;;;;;5107642;27;20129;-84
2023/10/05 02:04:10;;;;;;;6.32;2.05;;;13.40;99.90;;;;;;5111703;27;20662;-84
2023/10/05 02:06:40;;;;;;;7.00;2.45;;;13.30;99.90;;;;;;5111210;27;20530;-85
2023/10/05 02:09:10;;;;;;;6.80;2.67;;;13.30;99.90;;;;;;5079244;28;20055;-84
2023/10/05 02:11:36;;;;;;;8.35;2.00;;;13.30;99.90;;;;;;5109873;27;20040;-84
2023/10/05 02:14:04;;;;;;;5.85;2.35;;;13.30;99.90;;;;;;5088843;28;20052;-84
2023/10/05 02:16:33;;;;;;;4.75;2.15;;;13.30;99.90;;;;;;5092726;28;20103;-84
2023/10/05 02:19:04;;;;;;;5.28;1.80;;;14.00;99.90;;;;;;5098125;27;20055;-84
2023/10/05 02:21:32;;;;;;;6.38;2.22;;;14.30;99.90;;;;;;5101005;28;20051;-84
2023/10/05 02:24:05;;;;;;;8.75;2.58;;;13.30;99.90;;;;;;5103246;27;20055;-84
2023/10/05 02:28:56;;;;;;;10.18;2.40;;;13.20;99.90;;;;;;5111646;27;20051;-84
2023/10/05 02:31:22;;;;;;;6.38;2.15;;;13.30;99.90;;;;;;5094024;27;20043;-84
2023/10/05 02:33:48;;;;;;;6.13;2.20;;;13.30;99.90;;;;;;5110544;27;20118;-85
2023/10/05 02:36:20;;;;;;;9.43;2.38;;;13.20;99.90;;;;;;5095145;27;20078;-84
2023/10/05 02:38:49;;;;;;;;;;;13.30;99.90;;;;;;5087235;28;20594;-85
2023/10/05 02:41:17;;;;;;;5.38;2.20;;;13.30;99.90;;;;;;5102471;27;20286;-84
2023/10/05 02:43:52;;;;;;;4.78;2.13;;;13.30;99.90;;;;;;5124991;27;20055;-85
2023/10/05 02:46:19;;;;;;;5.20;2.20;;;13.30;99.90;;;;;;5073792;27;20383;-84
2023/10/05 02:48:45;;;;;;;5.95;2.20;;;13.30;99.90;;;;;;5095599;27;20491;-84
2023/10/05 02:51:13;;;;;;;6.63;2.03;;;13.30;99.90;;;;;;5075314;28;20119;-84
2023/10/05 02:53:44;;;;;;;7.18;2.25;;;13.30;99.90;;;;;;5081433;27;20031;-84
2023/10/05 02:56:29;;;;;;;10.30;2.53;;;13.30;99.90;;;;;;5123698;27;20603;-85
2023/10/05 02:59:20;;;;;;;4.97;2.17;;;13.40;99.90;;;;;;5091728;28;20040;-85
2023/10/05 03:01:45;;;;;;;6.97;1.98;;;13.50;99.90;;;;;;5097683;28;20391;-85
2023/10/05 03:06:39;;;;;;;6.88;2.55;;;13.40;99.90;;;;;;5108617;27;20081;-84
2023/10/05 03:09:08;;;;;;;6.07;2.55;;;13.40;99.90;;;;;;5128857;27;20815;-84
2023/10/05 03:11:46;;;;;;;4.78;2.28;;;13.40;99.90;;;;;;5115020;27;20123;-84
2023/10/05 03:14:16;;;;;;;7.63;2.63;;;13.40;99.90;;;;;;5125548;27;20150;-85
2023/10/05 03:16:48;;;;;;;6.15;2.22;;;13.90;99.90;;;;;;5102646;27;20052;-85
2023/10/05 03:19:21;;;;;;;7.38;2.55;;;13.30;99.90;;;;;;5110907;27;20055;-84
2023/10/05 03:21:49;;;;;;;8.30;2.60;;;13.30;99.90;;;;;;5073984;27;20115;-85
2023/10/05 03:24:14;;;;;;;8.07;2.45;;;13.30;99.90;;;;;;5074478;28;20130;-84
2023/10/05 03:26:43;;;;;;;6.40;2.22;;;13.60;99.90;;;;;;5091422;28;20131;-84
2023/10/05 03:29:11;;;;;;;6.00;2.20;;;13.30;99.90;;;;;;5094305;27;20130;-85
2023/10/05 03:31:53;;;;;;;7.78;2.58;;;13.30;99.90;;;;;;5078624;28;20058;-84
2023/10/05 03:34:20;;;;;;;9.65;2.33;;;13.20;99.90;;;;;;5074596;28;20425;-85
2023/10/05 03:36:47;;;;;;;11.18;2.97;;;13.20;99.90;;;;;;5090673;28;20058;-85
2023/10/05 03:39:14;;;;;;;6.70;2.20;;;13.20;99.90;;;;;;5093658;27;20133;-85
2023/10/05 03:41:42;;;;;;;4.72;2.42;;;13.20;99.90;;;;;;5102304;28;20056;-85
2023/10/05 03:44:08;;;;;;;6.45;2.20;;;12.90;99.90;;;;;;5098733;27;20077;-84
2023/10/05 03:46:35;;;;;;;6.75;2.50;;;13.10;99.90;;;;;;5101300;27;20047;-84
2023/10/05 03:49:06;;;;;;;3.72;2.10;;;13.10;99.90;;;;;;5101779;28;20092;-86
2023/10/05 03:51:37;;;;;;;6.20;2.28;;;13.10;99.90;;;;;;5078794;28;20155;-84
2023/10/05 03:54:04;;;;;;;8.52;2.97;;;14.00;99.90;;;;;;5108051;28;20039;-84
2023/10/05 03:56:30;;;;;;;10.40;3.03;;;13.10;99.90;;;;;;5088216;27;20051;-84
2023/10/05 03:59:00;;;;;;;6.55;2.38;;;13.10;99.90;;;;;;5097695;28;20043;-84
2023/10/05 04:01:25;;;;;;;10.32;3.03;;;13.10;99.90;;;;;;5090688;28;20454;-84
2023/10/05 04:03:51;;;;;;;7.88;2.42;;;13.10;99.90;;;;;;5094221;27;20039;-84
2023/10/05 04:06:17;;;;;;;6.95;2.53;;;13.10;99.90;;;;;;5108510;27;20363;-84
2023/10/05 04:09:03;;;;;;;7.43;2.13;;;13.10;99.90;;;;;;5109152;27;20881;-84
2023/10/05 04:11:33;;;;;;;8.23;2.42;;;13.10;99.90;;;;;;5075523;28;20058;-84
2023/10/05 04:14:01;;;;;;;10.70;2.25;;;13.10;99.90;;;;;;5090909;27;21330;-84
2023/10/05 04:16:33;;;;;;;9.68;2.80;;;13.60;99.90;;;;;;5096243;27;20111;-85
2023/10/05 04:19:04;;;;;;;13.85;2.88;;;13.90;99.90;;;;;;5110746;27;20051;-84
2023/10/05 04:21:33;;;;;;;7.50;2.65;;;13.10;99.90;;;;;;5087469;28;20047;-84
2023/10/05 04:23:59;;;;;;;8.52;2.63;;;13.10;99.90;;;;;;5108474;28;20399;-84
2023/10/05 04:26:39;;;;;;;7.40;2.50;;;13.10;99.90;;;;;;5091753;28;20052;-83
2023/10/05 04:29:08;;;;;;;10.35;2.80;;;13.20;99.90;;;;;;5073050;28;20055;-83
2023/10/05 04:31:36;;;;;;;6.18;2.47;;;13.10;99.90;;;;;;5099125;28;20082;-83
2023/10/05 04:34:05;;;;;;;7.03;2.63;;;13.10;99.90;;;;;;5090026;28;20083;-83
2023/10/05 04:36:32;;;;;;;10.50;2.85;;;13.10;99.90;;;;;;5072762;28;20063;-83
2023/10/05 04:38:58;;;;;;;8.30;2.72;;;13.40;99.90;;;;;;5096786;27;20570;-83
2023/10/05 04:41:39;;;;;;;7.93;2.42;;;13.10;99.90;;;;;;5105806;28;20055;-83
2023/10/05 04:44:12;;;;;;;7.00;2.65;;;13.00;99.90;;;;;;5108067;27;20050;-83
2023/10/05 04:46:47;;;;;;;7.18;2.58;;;12.90;99.90;;;;;;5102313;28;20051;-84
2023/10/05 04:49:14;;;;;;;12.55;3.05;;;13.60;99.90;;;;;;5092527;28;20051;-83
2023/10/05 04:51:44;;;;;;;8.68;2.63;;;13.40;99.90;;;;;;5108324;28;20047;-84
2023/10/05 04:54:11;;;;;;;8.05;2.60;;;13.00;99.90;;;;;;5097873;28;20047;-83
2023/10/05 05:07:01;;;;;;;5.80;2.47;;;12.80;99.90;;;;;;5100920;28;20075;-83
2023/10/05 05:09:34;;;;;;;5.97;2.40;;;12.80;99.90;;;;;;5106276;27;20039;-83
2023/10/05 05:12:08;;;;;;;9.68;2.95;;;12.80;99.90;;;;;;5088806;27;21015;-83
2023/10/05 05:14:42;;;;;;;9.40;2.78;;;12.80;99.90;;;;;;5090985;27;20789;-84
2023/10/05 05:17:12;;;;;;;7.30;2.40;;;12.90;99.90;;;;;;5113180;27;20043;-83
2023/10/05 05:19:39;;;;;;;5.78;2.47;;;12.90;99.90;;;;;;5100651;28;20040;-83
2023/10/05 05:22:05;;;;;;;10.30;2.60;;;12.90;99.90;;;;;;5109848;27;20165;-84
2023/10/05 05:24:35;;;;;;;6.30;2.67;;;12.90;99.90;;;;;;5131976;27;20063;-83
2023/10/05 05:27:21;;;;;;;8.13;2.78;;;13.80;99.90;;;;;;5098446;27;20039;-83
2023/10/05 05:29:47;;;;;;;8.30;2.72;;;13.00;99.90;;;;;;5087346;28;20048;-88
2023/10/05 05:32:13;;;;;;;8.70;2.42;;;13.10;99.90;;;;;;5109197;28;20115;-89
2023/10/05 05:34:44;;;;;;;6.40;2.30;;;13.40;99.90;;;;;;5113398;27;20119;-88
2023/10/05 05:37:28;;;;;;;9.10;2.60;;;13.30;99.90;;;;;;5106541;27;20397;-87
2023/10/05 05:39:54;;;;;;;8.77;2.47;;;13.10;99.90;;;;;;5099058;27;20152;-86
2023/10/05 05:42:21;;;;;;;9.63;2.70;;;13.40;99.90;;;;;;5111547;27;20039;-88
2023/10/05 05:44:47;;;;;;;14.40;2.97;;;13.30;99.90;;;;;;5116567;27;20115;-88
2023/10/05 05:47:14;;;;;;;7.85;2.47;;;13.10;99.90;;;;;;5114373;27;20039;-91
2023/10/05 05:49:46;;;;;;;7.97;2.67;;;13.20;99.90;;;;;;5087260;27;20051;-87
2023/10/05 05:52:13;;;;;;;10.13;3.20;;;13.20;99.90;;;;;;5096735;27;20413;-88
2023/10/05 05:54:41;;;;;;;6.03;2.42;;;13.20;99.90;;;;;;5115653;27;20076;-87
2023/10/05 05:57:07;;;;;;;8.45;2.72;;;13.20;99.90;;;;;;5099001;27;20043;-88
2023/10/05 05:59:38;;;;;;;7.05;2.65;;;13.30;99.90;;;;;;5113624;27;20109;-88
2023/10/05 06:02:08;;;;;;;8.02;2.85;;;13.30;99.90;;;;;;5098649;27;20051;-88
2023/10/05 06:04:41;;;;;;;8.38;2.38;;;13.30;99.90;;;;;;5110658;27;20053;-87
2023/10/05 06:07:13;;;;;;;8.32;3.10;;;13.30;99.90;;;;;;5103904;28;20047;-86
2023/10/05 06:09:42;;;;;;;10.25;2.85;;;13.30;99.90;;;;;;5093724;28;20690;-87
2023/10/05 06:12:11;;;;;;;6.70;2.50;;;13.40;99.90;;;;;;5077914;28;20040;-87
2023/10/05 06:14:37;;;;;;;9.32;2.60;;;14.10;99.90;;;;;;5077490;28;20066;-87
2023/10/05 06:17:03;;;;;;;8.07;2.95;;;13.40;99.90;;;;;;5093925;28;20055;-88
2023/10/05 06:19:31;;;;;;;9.25;2.80;;;13.40;99.90;;;;;;5115632;27;20047;-87
2023/10/05 06:21:57;;;;;;;7.63;2.70;;;13.50;99.90;;;;;;5105558;27;20122;-86
2023/10/05 06:24:24;;;;;;;10.20;2.70;;;13.70;99.90;;;;;;5096191;28;20126;-87
2023/10/05 06:26:49;;;;;;;7.07;2.47;;;13.60;99.90;;;;;;5094125;28;20074;-87
2023/10/05 06:29:15;;;;;;;7.40;2.70;;;13.60;99.90;;;;;;5093033;28;20494;-86
2023/10/05 06:31:43;;;;;;;8.68;2.58;;;13.60;99.90;;;;;;5093200;28;20047;-82
2023/10/05 06:34:12;;;;;;;9.95;2.72;;;13.60;99.90;;;;;;5110654;28;20130;-89
2023/10/05 06:36:38;;;;;;;11.32;2.90;;;13.60;99.90;;;;;;5095278;27;20043;-88
2023/10/05 06:39:06;;;;;;;6.78;2.60;;;13.70;99.90;;;;;;5102670;28;20048;-88
2023/10/05 06:41:36;;;;;;;6.72;2.50;;;13.70;99.90;;;;;;5102747;28;20051;-88
2023/10/05 06:44:03;;;;;;;7.72;2.80;;;13.80;99.90;;;;;;5096585;28;20094;-87
2023/10/05 06:46:28;;;;;;;7.90;2.55;;;13.80;99.90;;;;;;5109959;28;20092;-86
2023/10/05 06:48:58;;;;;;;8.00;2.80;;;13.90;99.90;;;;;;5110320;28;20047;-86
2023/10/05 06:51:28;;;;;;;7.32;2.42;;;13.80;99.90;;;;;;5071944;28;20131;-87
2023/10/05 06:53:54;;;;;;;7.85;3.10;;;13.90;99.90;;;;;;5092463;28;20044;-85
2023/10/05 06:56:30;;;;;;;7.65;2.90;;;14.30;99.90;;;;;;5075440;28;20044;-89
2023/10/05 06:58:57;;;;;;;6.78;2.90;;;14.90;99.90;;;;;;5074492;28;20225;-90
2023/10/05 07:01:23;;;;;;;7.63;2.60;;;14.10;99.90;;;;;;5075315;28;20711;-87
2023/10/05 07:03:58;;;;;;;11.35;2.97;;;14.00;99.90;;;;;;5097351;28;20044;-87
2023/10/05 07:06:32;;;;;;;11.07;2.92;;;14.10;99.90;;;;;;5091996;28;20143;-95
2023/10/05 07:09:04;;;;;;;9.05;2.97;;;14.10;99.90;;;;;;5084968;28;20467;-90
2023/10/05 07:11:31;;;;;;;9.70;3.15;;;14.20;99.90;;;;;;5076927;28;20076;-89
2023/10/05 07:13:59;;;;;;;9.15;2.67;;;14.20;99.90;;;;;;5092724;28;20406;-90
2023/10/05 07:16:25;;;;;;;15.30;3.58;;;14.30;99.90;;;;;;5077943;28;20139;-87
2023/10/05 07:18:52;;;;;;;8.38;2.80;;;14.20;99.90;;;;;;5090777;28;20513;-85
2023/10/05 07:21:17;;;;;;;7.40;2.55;;;14.30;99.90;;;;;;5090076;28;20514;-84
2023/10/05 07:23:43;;;;;;;7.63;2.75;;;14.30;99.90;;;;;;5081528;28;20052;-86
2023/10/05 07:26:09;;;;;;;10.23;3.28;;;14.30;99.90;;;;;;5088322;28;20479;-87
2023/10/05 07:28:35;;;;;;;7.50;2.67;;;14.40;99.90;;;;;;5088919;28;20460;-87
2023/10/05 07:31:02;;;;;;;11.52;3.10;;;14.40;99.90;;;;;;5086094;28;20051;-86
2023/10/05 07:33:33;;;;;;;9.85;3.70;;;14.60;99.90;;;;;;5097952;28;20040;-86
2023/10/05 07:35:59;;;;;;;7.35;2.35;;;14.50;99.90;;;;;;5088347;28;20132;-86
2023/10/05 07:38:28;;;;;;;12.90;5.60;;;14.60;99.90;;;;;;5095727;28;20130;-82
2023/10/05 07:40:57;;;;;;;7.18;2.88;;;14.60;99.90;;;;;;5101484;28;20075;-85
2023/10/05 07:43:24;;;;;;;9.23;2.47;;;15.50;99.90;;;;;;5106154;28;20055;-82
2023/10/05 07:45:50;;;;;;;7.53;2.47;;;14.70;99.90;;;;;;5089157;28;20134;-82
2023/10/05 07:48:16;;;;;;;6.53;2.88;;;14.70;99.90;;;;;;5095157;28;20060;-83
2023/10/05 07:50:42;;;;;;;12.77;2.88;;;14.80;99.90;;;;;;5085955;28;20048;-82
2023/10/05 07:53:09;;;;;;;8.27;2.90;;;14.80;99.90;;;;;;5085955;28;20059;-82
2023/10/05 07:55:36;;;;;;;8.10;2.80;;;14.80;99.90;;;;;;5095713;28;20671;-82
2023/10/05 07:58:03;;;;;;;8.27;3.28;;;15.60;99.90;;;;;;5093921;28;20422;-82
2023/10/05 08:00:32;;;;;;;7.88;3.15;;;14.90;99.90;;;;;;5088249;28;20414;-83
2023/10/05 08:02:58;;;;;;;7.72;3.13;;;14.90;99.90;;;;;;5087163;28;20073;-82
2023/10/05 08:05:24;;;;;;;8.38;2.90;;;15.00;99.90;;;;;;5087144;28;20052;-84
2023/10/05 08:07:50;;;;;;;11.00;2.95;;;15.50;99.90;;;;;;5086724;28;20043;-82
2023/10/05 08:10:15;;;;;;;9.20;3.30;;;15.10;99.90;;;;;;5070077;28;20048;-82
2023/10/05 08:12:43;;;;;;;10.05;3.08;;;15.20;99.90;;;;;;5087262;28;20032;-82
2023/10/05 08:15:12;;;;;;;7.45;3.10;;;15.20;99.90;;;;;;5086666;28;20119;-82
2023/10/05 08:17:39;;;;;;;9.77;2.83;;;15.30;99.90;;;;;;5086892;28;20075;-82
2023/10/05 08:20:06;;;;;;;8.10;3.10;;;15.30;99.90;;;;;;5088618;28;20110;-82
2023/10/05 08:22:32;;;;;;;11.00;4.50;;;15.40;99.90;;;;;;5070022;28;20457;-82
2023/10/05 08:25:00;;;;;;;9.13;3.28;;;15.50;99.90;;;;;;5086705;28;20047;-84
2023/10/05 08:27:26;;;;;;;10.90;3.40;;;15.50;99.90;;;;;;5086799;28;20411;-83
2023/10/05 08:29:52;;;;;;;9.65;3.40;;;15.60;99.90;;;;;;5095771;28;20040;-85
2023/10/05 08:32:23;;;;;;;8.02;2.97;;;15.60;99.90;;;;;;5098463;28;20044;-84
2023/10/05 08:34:48;;;;;;;8.52;3.00;;;15.70;99.90;;;;;;5107327;28;20104;-83
2023/10/05 08:37:14;;;;;;;10.52;3.45;;;16.60;99.90;;;;;;5099216;28;20043;-82
2023/10/05 08:39:40;;;;;;;7.55;3.00;;;15.80;99.90;;;;;;5096871;28;20784;-83
2023/10/05 08:42:06;;;;;;;8.70;3.00;;;15.90;99.90;;;;;;5080797;28;20047;-84
2023/10/05 08:44:38;;;;;;;11.27;3.30;;;16.00;99.90;;;;;;5090274;28;20064;-85
2023/10/05 08:47:07;;;;;;;10.85;3.13;;;16.00;99.90;;;;;;5078381;28;20055;-83
2023/10/05 08:49:33;;;;;;;15.23;3.60;;;15.90;99.90;;;;;;5096569;28;20040;-83
2023/10/05 08:51:59;;;;;;;7.03;3.47;;;17.10;99.90;;;;;;5093185;28;20109;-86
2023/10/05 08:54:37;;;;;;;9.30;2.92;;;16.10;99.90;;;;;;5099167;28;20137;-87
2023/10/05 08:57:09;;;;;;;9.60;2.72;;;17.00;99.90;;;;;;5078543;28;20580;-87
2023/10/05 08:59:45;;;;;;;9.82;2.90;;;16.20;99.90;;;;;;5086502;28;20052;-84
2023/10/05 09:02:12;;;;;;;11.85;3.90;;;16.20;99.90;;;;;;5087935;28;20536;-84
2023/10/05 09:04:43;;;;;;;9.38;3.08;;;16.20;99.90;;;;;;5085395;28;20499;-83
2023/10/05 09:07:34;;;;;;;11.13;3.83;;;16.50;99.90;;;;;;5086254;28;20039;-83
2023/10/05 09:10:00;;;;;;;8.73;3.22;;;16.20;99.90;;;;;;5096211;28;20085;-84
2023/10/05 09:12:34;;;;;;;10.57;2.83;;;16.10;99.90;;;;;;5086945;28;20615;-84
2023/10/05 09:15:05;;;;;;;7.13;3.20;;;16.70;99.90;;;;;;5086194;28;20048;-84
2023/10/05 09:17:34;;;;;;;8.27;2.75;;;16.00;99.90;;;;;;5086428;28;20067;-84
2023/10/05 09:20:19;;;;;;;9.63;2.50;;;16.10;99.90;;;;;;5086378;28;20065;-82
2023/10/05 09:22:54;;;;;;;11.10;3.08;;;16.00;99.90;;;;;;5069301;28;20052;-84
2023/10/05 09:25:38;;;;;;;8.45;3.17;;;16.00;99.90;;;;;;5085686;28;20048;-83
2023/10/05 09:28:14;;;;;;;12.05;3.20;;;15.90;99.90;;;;;;5086536;28;20502;-82
2023/10/05 09:31:11;;;;;;;7.43;2.75;;;16.00;99.90;;;;;;5090812;28;20039;-83
2023/10/05 09:33:47;;;;;;;11.48;3.05;;;16.00;99.90;;;;;;5106054;28;20367;-83
2023/10/05 09:36:20;;;;;;;9.55;3.00;;;16.00;99.90;;;;;;5106098;28;20035;-83
2023/10/05 09:38:47;;;;;;;8.77;3.47;;;16.00;99.90;;;;;;5106381;28;20491;-83
2023/10/05 09:41:17;;;;;;;8.98;3.10;;;16.00;99.90;;;;;;5102462;28;20514;-82
2023/10/05 09:43:44;;;;;;;8.55;3.30;;;16.00;99.90;;;;;;5087536;28;20163;-82
2023/10/05 09:46:11;;;;;;;9.88;2.85;;;16.10;99.90;;;;;;5087262;28;20036;-83
2023/10/05 09:48:40;;;;;;;12.55;3.83;;;16.20;99.90;;;;;;5085103;28;20039;-84
2023/10/05 09:51:10;;;;;;;8.98;2.65;;;17.10;99.90;;;;;;5086520;28;20050;-84
2023/10/05 09:53:38;;;;;;;8.57;2.83;;;16.30;99.90;;;;;;5087379;28;20059;-82
2023/10/05 09:56:04;;;;;;;8.05;3.13;;;16.30;99.90;;;;;;5071532;28;20086;-83
2023/10/05 09:58:32;;;;;;;8.55;2.47;;;16.40;99.90;;;;;;5076621;28;20048;-84
2023/10/05 10:01:10;;;;;;;8.90;3.00;;;16.50;99.90;;;;;;5089859;28;20127;-85
2023/10/05 10:03:37;;;;;;;9.85;3.13;;;16.50;99.90;;;;;;5089188;28;20113;-83
2023/10/05 10:06:09;;;;;;;7.93;2.92;;;17.00;99.90;;;;;;5099686;28;20047;-84
2023/10/05 10:08:48;;;;;;;11.65;2.95;;;16.60;99.90;;;;;;5098549;28;20681;-83
2023/10/05 10:11:20;;;;;;;8.05;2.70;;;16.70;99.90;;;;;;5092383;28;20054;-84
2023/10/05 10:13:59;;;;;;;;;;;17.80;99.90;;;;;;5094192;28;20455;-82
2023/10/05 10:16:31;;;;;;;8.18;2.50;;;16.50;99.90;;;;;;5089372;28;19928;-84
2023/10/05 10:19:19;;;;;;;10.32;2.63;;;16.50;99.90;;;;;;5089066;28;20123;-83
2023/10/05 10:21:48;;;;;;;5.90;2.38;;;16.90;99.90;;;;;;5091167;28;20051;-83
2023/10/05 10:24:17;;;;;;;10.85;2.97;;;16.60;99.90;;;;;;5102532;28;20051;-83
2023/10/05 10:26:44;;;;;;;7.50;2.83;;;16.40;99.90;;;;;;5109183;28;20487;-83
2023/10/05 10:29:11;;;;;;;10.95;3.03;;;16.40;99.90;;;;;;5075254;28;20051;-82
2023/10/05 10:31:47;;;;;;;8.90;3.00;;;17.00;99.90;;;;;;5071912;28;20044;-82
2023/10/05 10:34:31;;;;;;;12.50;3.40;;;17.00;99.90;;;;;;5089001;28;20060;-82
2023/10/05 10:36:57;;;;;;;11.32;3.53;;;16.20;99.90;;;;;;5093609;28;20059;-81
2023/10/05 10:39:31;;;;;;;13.23;3.92;;;16.20;99.90;;;;;;5108207;28;20039;-81
2023/10/05 10:42:01;;;;;;;12.75;3.30;;;17.10;99.90;;;;;;5084439;28;20059;-82
2023/10/05 10:44:27;;;;;;;13.52;3.67;;;16.20;99.90;;;;;;5093075;28;20055;-82
2023/10/05 10:47:12;;;;;;;7.60;3.35;;;16.20;99.90;;;;;;5090039;28;20048;-82
2023/10/05 10:49:39;;;;;;;10.18;3.13;;;16.20;99.90;;;;;;5090813;28;20059;-84
2023/10/05 10:52:09;;;;;;;9.60;3.03;;;16.20;99.90;;;;;;5071378;28;20052;-83
2023/10/05 10:54:45;;;;;;;6.03;2.72;;;16.20;99.90;;;;;;5071469;28;20495;-84
2023/10/05 10:57:20;;;;;;;10.48;3.50;;;16.20;99.90;;;;;;5086888;28;20070;-83
2023/10/05 10:59:46;;;;;;;8.77;3.33;;;17.00;99.90;;;;;;5090751;28;20158;-82
2023/10/05 11:02:19;;;;;;;12.32;3.72;;;16.10;99.90;;;;;;5088390;28;20097;-82
2023/10/05 11:04:47;;;;;;;11.57;3.85;;;16.00;99.90;;;;;;5088007;28;20044;-81
2023/10/05 11:07:13;;;;;;;8.35;3.15;;;16.20;99.90;;;;;;5089255;28;20173;-81
2023/10/05 11:09:48;;;;;;;7.70;3.03;;;16.80;99.90;;;;;;5090423;28;20158;-83
2023/10/05 11:12:17;;;;;;;10.70;3.00;;;15.50;99.90;;;;;;5091735;28;20042;-83
2023/10/05 11:14:43;;;;;;;10.93;3.60;;;15.90;99.90;;;;;;5105789;28;20051;-82
2023/10/05 11:17:45;;;;;;;7.15;3.13;;;16.00;99.90;;;;;;5100632;28;20044;-83
2023/10/05 11:20:33;;;;;;;10.47;2.77;;;15.30;99.90;;;;;;5102707;28;20047;-82
2023/10/05 11:23:03;;;;;;;9.45;2.90;;;15.20;99.90;;;;;;5108439;28;20056;-81
2023/10/05 11:25:33;;;;;;;11.23;3.63;;;15.20;99.90;;;;;;5107862;28;20058;-81
2023/10/05 11:28:00;;;;;;;10.25;3.63;;;15.20;99.90;;;;;;5108544;28;20043;-81
2023/10/05 11:30:42;;;;;;;7.25;3.33;;;15.30;99.90;;;;;;5109172;28;20495;-81
2023/10/05 11:33:17;;;;;;;10.82;3.65;;;16.30;99.90;;;;;;5102353;28;20048;-82
2023/10/05 11:35:51;;;;;;;8.43;3.50;;;16.40;99.90;;;;;;5096286;28;20119;-82
2023/10/05 11:38:19;;;;;;;12.00;3.17;;;15.40;99.90;;;;;;5074484;28;20083;-82
2023/10/05 11:40:49;;;;;;;8.63;3.63;;;15.40;99.90;;;;;;5100975;27;20039;-83
2023/10/05 11:43:18;;;;;;;9.35;3.60;;;15.40;99.90;;;;;;5078178;28;20062;-81
2023/10/05 11:45:58;;;;;;;10.45;3.42;;;15.40;99.90;;;;;;5090674;28;20053;-81
2023/10/05 11:48:35;;;;;;;8.25;3.30;;;15.40;99.90;;;;;;5102944;27;20054;-81
2023/10/05 11:51:09;;;;;;;7.32;3.15;;;15.40;99.90;;;;;;5104480;27;20172;-80
2023/10/05 11:53:35;;;;;;;9.43;3.42;;;15.70;99.90;;;;;;5090478;28;20058;-83
2023/10/05 11:56:04;;;;;;;11.32;3.20;;;15.70;99.90;;;;;;5090350;28;20089;-85
2023/10/05 11:58:33;;;;;;;7.65;3.35;;;16.30;99.90;;;;;;5082904;27;20066;-80
2023/10/05 12:01:03;;;;;;;6.72;3.40;;;16.00;99.90;;;;;;5093449;27;20051;-83
2023/10/05 12:03:30;;;;;;;9.90;3.80;;;16.40;99.90;;;;;;5110730;27;20051;-83
2023/10/05 12:06:00;;;;;;;7.35;3.17;;;16.20;99.90;;;;;;5081442;28;20784;-83
2023/10/05 12:08:30;;;;;;;12.20;3.70;;;16.80;99.90;;;;;;5090555;28;20039;-83
2023/10/05 12:10:59;;;;;;;11.93;3.78;;;16.30;99.90;;;;;;5089645;28;20137;-83
2023/10/05 12:13:31;;;;;;;9.73;3.88;;;16.30;99.90;;;;;;5090493;28;20047;-83
2023/10/05 12:15:58;;;;;;;12.00;3.90;;;16.30;99.90;;;;;;5089550;28;20601;-83
2023/10/05 12:18:24;;;;;;;13.93;4.10;;;16.40;99.90;;;;;;5089642;28;20048;-83
2023/10/05 12:20:50;;;;;;;10.98;3.65;;;16.50;99.90;;;;;;5108467;28;20181;-88
2023/10/05 12:23:16;;;;;;;12.60;3.70;;;16.80;99.90;;;;;;5093271;28;20105;-88
2023/10/05 12:25:45;;;;;;;10.18;3.63;;;16.80;99.90;;;;;;5072679;28;20059;-83
2023/10/05 12:28:11;;;;;;;12.80;3.75;;;16.80;99.90;;;;;;5072718;28;20062;-83
2023/10/05 12:30:44;;;;;;;10.15;3.97;;;16.90;99.90;;;;;;5089432;28;20180;-83
2023/10/05 12:33:11;;;;;;;9.38;3.25;;;17.00;99.90;;;;;;5089850;28;20056;-84
2023/10/05 12:35:37;;;;;;;12.20;3.47;;;17.00;99.90;;;;;;5072543;28;20112;-83
2023/10/05 12:38:06;;;;;;;10.00;4.35;;;17.20;99.90;;;;;;5090370;27;20525;-83
2023/10/05 12:40:34;;;;;;;11.48;4.35;;;18.00;99.90;;;;;;5071865;28;20519;-83
2023/10/05 12:43:00;;;;;;;7.30;2.78;;;17.20;99.90;;;;;;5089896;28;20830;-83
2023/10/05 12:45:26;;;;;;;10.90;3.20;;;17.30;99.90;;;;;;5089603;28;20039;-82
2023/10/05 12:47:55;;;;;;;11.18;3.35;;;17.90;99.90;;;;;;5072989;28;20039;-82
2023/10/05 12:50:22;;;;;;;10.05;3.10;;;18.00;99.90;;;;;;5095403;28;20055;-81
2023/10/05 12:52:51;;;;;;;6.57;2.83;;;17.50;99.90;;;;;;5110240;28;20122;-82
2023/10/05 12:55:22;;;;;;;23.88;3.60;;;17.60;99.90;;;;;;5128284;28;20050;-82
2023/10/05 12:57:52;;;;;;;9.80;3.03;;;17.50;99.90;;;;;;5110222;28;20498;-81
2023/10/05 13:00:27;;;;;;;9.18;3.13;;;17.60;99.90;;;;;;5128856;28;20084;-87
2023/10/05 13:02:54;;;;;;;8.30;3.17;;;17.90;99.90;;;;;;5091831;28;20868;-80
2023/10/05 13:05:21;;;;;;;7.55;2.65;;;17.50;99.90;;;;;;5107802;28;20114;-85
2023/10/05 13:07:50;;;;;;;7.60;3.35;;;17.50;99.90;;;;;;5110069;28;20443;-84
2023/10/05 13:13:20;;;;;;;8.82;2.60;;;17.40;99.90;;;;;;5104234;28;20055;-83
2023/10/05 13:15:46;;;;;;;5.75;2.60;;;17.40;99.90;;;;;;5091279;28;20100;-83
2023/10/05 13:18:18;;;;;;;7.03;2.65;;;17.40;99.90;;;;;;5073328;28;20054;-83
2023/10/05 13:20:53;;;;;;;8.65;3.28;;;17.40;99.90;;;;;;5089533;28;20043;-80
2023/10/05 13:23:19;;;;;;;8.32;2.70;;;17.40;99.90;;;;;;5089891;28;20081;-85
2023/10/05 13:25:54;;;;;;;6.57;2.50;;;17.40;99.90;;;;;;5089313;28;20475;-85
2023/10/05 13:28:23;;;;;;;8.80;2.58;;;17.40;99.90;;;;;;5073579;28;20040;-86
2023/10/05 13:30:53;;;;;;;7.88;2.50;;;17.30;99.90;;;;;;5076229;28;20847;-86